createdAt,value
2022-08-14T00:01:15.269Z,21.19
2022-08-14T00:06:47.085Z,21.22
2022-08-14T00:12:23.710Z,21.27
2022-08-14T00:17:52.796Z,21.16
2022-08-14T00:23:17.981Z,21.02
2022-08-14T00:28:39.842Z,20.89
2022-08-14T00:34:36.142Z,20.87
2022-08-14T00:39:43.525Z,20.93
2022-08-14T00:45:08.286Z,20.57
2022-08-14T00:50:34.047Z,20.34
2022-08-14T00:55:59.895Z,20.06
2022-08-14T01:01:21.923Z,19.84
2022-08-14T01:06:44.142Z,19.84
2022-08-14T01:12:07.809Z,19.76
2022-08-14T01:17:57.803Z,19.57
2022-08-14T01:23:22.155Z,19.62
2022-08-14T01:28:54.169Z,19.86
2022-08-14T01:35:19.193Z,19.94
2022-08-14T01:40:02.966Z,19.88
2022-08-14T01:45:25.823Z,19.97
2022-08-14T01:50:47.618Z,19.98
2022-08-14T01:56:12.083Z,19.78
2022-08-14T02:01:58.540Z,19.91
2022-08-14T02:07:34.177Z,20.00
2022-08-14T02:13:08.973Z,19.83
2022-08-14T02:18:32.647Z,19.62
2022-08-14T02:23:57.182Z,19.67
2022-08-14T02:29:23.246Z,19.75
2022-08-14T02:34:45.479Z,19.76
2022-08-14T02:40:07.742Z,19.76
2022-08-14T02:45:38.023Z,19.82
2022-08-14T02:51:13.991Z,19.67
2022-08-14T02:57:14.249Z,19.52
2022-08-14T03:02:48.966Z,19.15
2022-08-14T03:08:15.355Z,19.16
2022-08-14T03:13:51.535Z,19.19
2022-08-14T03:19:14.022Z,19.17
2022-08-14T03:24:36.685Z,19.32
2022-08-14T03:30:05.417Z,19.20
2022-08-14T03:35:37.361Z,19.24
2022-08-14T03:41:02.169Z,19.17
2022-08-14T03:46:38.833Z,19.10
2022-08-14T03:52:37.668Z,19.04
2022-08-14T03:57:52.735Z,18.72
2022-08-14T04:03:19.763Z,18.73
2022-08-14T04:08:45.697Z,18.66
2022-08-14T04:14:08.170Z,18.51
2022-08-14T04:19:33.084Z,18.52
2022-08-14T04:25:02.194Z,18.58
2022-08-14T04:30:32.739Z,18.60
2022-08-14T04:35:57.150Z,18.70
2022-08-14T04:41:37.881Z,18.71
2022-08-14T04:47:23.908Z,18.53
2022-08-14T04:52:53.847Z,18.51
2022-08-14T04:58:21.931Z,18.44
2022-08-14T05:03:56.502Z,18.47
2022-08-14T05:09:18.493Z,18.56
2022-08-14T05:14:47.192Z,18.46
2022-08-14T05:21:55.432Z,18.65
2022-08-14T05:26:02.733Z,18.64
2022-08-14T05:31:24.501Z,18.67
2022-08-14T05:37:03.150Z,18.72
2022-08-14T05:42:26.983Z,18.93
2022-08-14T05:47:51.825Z,19.15
2022-08-14T05:53:13.754Z,19.19
2022-08-14T05:58:41.040Z,19.10
2022-08-14T06:04:04.445Z,19.17
2022-08-14T06:09:26.904Z,19.01
2022-08-14T06:14:48.682Z,19.03
2022-08-14T06:20:11.628Z,19.04
2022-08-14T06:25:34.271Z,19.09
2022-08-14T06:30:57.692Z,19.21
2022-08-14T06:36:19.948Z,19.43
2022-08-14T06:41:57.170Z,19.45
2022-08-14T06:47:21.575Z,19.57
2022-08-14T06:52:50.138Z,19.75
2022-08-14T06:58:28.734Z,19.87
2022-08-14T07:04:22.544Z,20.09
2022-08-14T07:09:50.907Z,20.29
2022-08-14T07:15:13.061Z,20.49
2022-08-14T07:20:35.746Z,20.68
2022-08-14T07:25:59.206Z,20.75
2022-08-14T07:31:21.014Z,20.82
2022-08-14T07:36:58.150Z,20.95
2022-08-14T07:42:23.282Z,21.85
2022-08-14T07:47:45.688Z,22.42
2022-08-14T07:53:08.638Z,22.40
2022-08-14T07:58:34.428Z,22.26
2022-08-14T08:04:03.518Z,22.12
2022-08-14T08:09:31.840Z,22.17
2022-08-14T08:15:05.591Z,22.25
2022-08-14T08:20:29.427Z,22.43
2022-08-14T08:25:51.598Z,22.51
2022-08-14T08:31:13.430Z,22.56
2022-08-14T08:36:42.013Z,22.62
2022-08-14T08:42:08.382Z,22.71
2022-08-14T08:47:40.937Z,22.79
2022-08-14T08:53:08.331Z,22.88
2022-08-14T08:58:31.108Z,22.99
2022-08-14T09:04:01.830Z,23.13
2022-08-14T09:09:33.109Z,23.32
2022-08-14T09:14:56.590Z,23.48
2022-08-14T09:20:29.407Z,23.65
2022-08-14T09:26:01.280Z,23.71
2022-08-14T09:31:24.575Z,23.95
2022-08-14T09:37:07.893Z,24.26
2022-08-14T09:42:49.801Z,24.28
2022-08-14T09:48:17.573Z,24.39
2022-08-14T09:54:18.204Z,24.38
2022-08-14T09:59:43.436Z,24.39
2022-08-14T10:05:09.930Z,24.48
2022-08-14T10:10:39.156Z,24.60
2022-08-14T10:16:01.316Z,24.72
2022-08-14T10:21:24.145Z,24.85
2022-08-14T10:26:57.504Z,25.09
2022-08-14T10:32:36.356Z,25.18
2022-08-14T10:38:03.929Z,25.20
2022-08-14T10:43:31.576Z,25.32
2022-08-14T10:49:04.972Z,25.42
2022-08-14T10:54:39.997Z,25.55
2022-08-14T11:00:13.970Z,25.63
2022-08-14T11:05:45.165Z,25.76
2022-08-14T11:11:08.155Z,25.81
2022-08-14T11:16:31.203Z,25.85
2022-08-14T11:21:56.070Z,26.09
2022-08-14T11:27:20.182Z,26.14
2022-08-14T11:32:45.995Z,26.23
2022-08-14T11:38:12.470Z,26.27
2022-08-14T11:43:56.183Z,26.50
2022-08-14T11:49:35.049Z,26.58
2022-08-14T11:54:58.419Z,26.72
2022-08-14T12:00:21.685Z,26.87
2022-08-14T12:06:05.339Z,26.94
2022-08-14T12:11:43.328Z,27.09
2022-08-14T12:17:12.166Z,27.15
2022-08-14T12:22:44.318Z,27.24
2022-08-14T12:28:27.339Z,27.16
2022-08-14T12:34:00.016Z,27.25
2022-08-14T12:39:25.696Z,27.30
2022-08-14T12:44:48.696Z,27.36
2022-08-14T12:50:10.952Z,27.47
2022-08-14T12:56:17.507Z,27.53
2022-08-14T13:01:27.279Z,27.65
2022-08-14T13:06:50.925Z,27.66
2022-08-14T13:12:31.292Z,27.63
2022-08-14T13:18:01.764Z,27.59
2022-08-14T13:23:31.861Z,27.82
2022-08-14T13:29:02.669Z,27.79
2022-08-14T13:34:27.694Z,27.81
2022-08-14T13:39:53.710Z,27.88
2022-08-14T13:45:22.084Z,28.01
2022-08-14T13:50:48.585Z,28.06
2022-08-14T13:56:14.832Z,28.20
2022-08-14T14:01:51.704Z,28.28
2022-08-14T14:07:15.980Z,28.42
2022-08-14T14:12:41.389Z,28.42
2022-08-14T14:18:03.548Z,28.52
2022-08-14T14:23:26.888Z,28.58
2022-08-14T14:28:50.652Z,28.68
2022-08-14T14:34:29.065Z,28.63
2022-08-14T14:40:54.149Z,28.64
2022-08-14T14:45:37.257Z,28.68
2022-08-14T14:51:01.456Z,28.58
2022-08-14T14:56:49.749Z,28.41
2022-08-14T15:02:09.551Z,28.30
2022-08-14T15:07:32.367Z,28.12
2022-08-14T15:12:56.079Z,28.07
2022-08-14T15:18:37.395Z,28.12
2022-08-14T15:24:01.999Z,27.94
2022-08-14T15:29:27.536Z,27.92
2022-08-14T15:34:52.622Z,27.99
2022-08-14T15:40:22.169Z,28.06
2022-08-14T15:45:44.428Z,28.08
2022-08-14T15:51:06.351Z,28.13
2022-08-14T15:56:42.261Z,28.08
2022-08-14T16:02:05.220Z,28.02
2022-08-14T16:07:30.791Z,27.97
2022-08-14T16:12:53.011Z,27.92
2022-08-14T16:18:18.446Z,27.90
2022-08-14T16:23:44.185Z,27.89
2022-08-14T16:29:08.903Z,27.97
2022-08-14T16:34:43.968Z,27.89
2022-08-14T16:40:10.938Z,27.81
2022-08-14T16:45:33.628Z,27.75
2022-08-14T16:50:55.592Z,27.78
2022-08-14T16:56:24.168Z,27.69
2022-08-14T17:02:01.226Z,27.63
2022-08-14T17:07:26.861Z,27.62
2022-08-14T17:12:48.689Z,27.67
2022-08-14T17:18:14.964Z,27.62
2022-08-14T17:23:44.589Z,27.47
2022-08-14T17:29:19.843Z,27.38
2022-08-14T17:34:53.304Z,27.30
2022-08-14T17:40:20.779Z,27.23
2022-08-14T17:45:45.386Z,27.14
2022-08-14T17:51:09.093Z,27.01
2022-08-14T17:56:34.479Z,26.88
2022-08-14T18:02:01.758Z,26.80
2022-08-14T18:07:59.484Z,26.79
2022-08-14T18:13:07.970Z,26.70
2022-08-14T18:18:32.701Z,26.60
2022-08-14T18:23:54.727Z,26.51
2022-08-14T18:29:17.912Z,26.47
2022-08-14T18:34:50.710Z,26.37
2022-08-14T18:40:15.807Z,26.32
2022-08-14T18:45:59.383Z,26.29
2022-08-14T18:51:45.415Z,26.19
2022-08-14T18:57:09.027Z,26.16
2022-08-14T19:02:43.665Z,26.15
2022-08-14T19:08:25.061Z,26.11
2022-08-14T19:13:49.016Z,26.07
2022-08-14T19:19:14.178Z,26.05
2022-08-14T19:24:43.902Z,25.99
2022-08-14T19:30:20.196Z,25.95
2022-08-14T19:35:55.488Z,25.92
2022-08-14T19:41:30.777Z,25.93
2022-08-14T19:47:02.783Z,25.86
2022-08-14T19:52:35.314Z,25.81
2022-08-14T19:58:01.207Z,25.79
2022-08-14T20:03:24.787Z,25.79
2022-08-14T20:10:59.187Z,25.73
2022-08-14T20:14:31.186Z,25.67
2022-08-14T20:19:53.355Z,25.59
2022-08-14T20:25:21.549Z,25.59
2022-08-14T20:30:44.103Z,25.57
2022-08-14T20:36:14.983Z,25.53
2022-08-14T20:41:51.069Z,25.52
2022-08-14T20:47:16.889Z,25.50
2022-08-14T20:52:40.914Z,25.46
2022-08-14T20:58:09.879Z,25.48
2022-08-14T21:03:57.376Z,25.49
2022-08-14T21:10:03.170Z,25.40
2022-08-14T21:15:11.414Z,25.31
2022-08-14T21:20:39.432Z,25.27
2022-08-14T21:26:03.571Z,25.25
2022-08-14T21:31:29.874Z,25.22
2022-08-14T21:36:54.358Z,25.19
2022-08-14T21:42:16.089Z,25.14
2022-08-14T21:47:40.138Z,25.11
2022-08-14T21:53:07.250Z,24.99
2022-08-14T21:58:52.921Z,24.97
2022-08-14T22:04:34.477Z,24.92
2022-08-14T22:09:55.017Z,24.88
2022-08-14T22:15:18.754Z,24.78
2022-08-14T22:20:41.653Z,24.74
2022-08-14T22:26:05.010Z,24.71
2022-08-14T22:31:34.984Z,24.69
2022-08-14T22:37:01.483Z,24.65
2022-08-14T22:42:23.445Z,24.62
2022-08-14T22:47:45.193Z,24.63
2022-08-14T22:53:09.228Z,24.52
2022-08-14T22:58:34.902Z,24.51
2022-08-14T23:03:57.056Z,24.50
2022-08-14T23:09:35.914Z,24.51
2022-08-14T23:15:00.170Z,24.46
2022-08-14T23:20:23.131Z,24.45
2022-08-14T23:25:59.512Z,24.41
2022-08-14T23:31:34.467Z,24.36
2022-08-14T23:36:58.020Z,24.26
2022-08-14T23:42:19.779Z,24.28
2022-08-14T23:47:52.048Z,24.22
2022-08-14T23:53:28.217Z,24.17
2022-08-14T23:59:03.835Z,24.09
